Accueil
Images satellite Prévisions 10 joursClimatMétéo marine Cyclones Foudre AéroportsFAQ Actualités A propos
Météo : Europe Afrique Amérique du Nord Amérique du Sud Asie Australie-Océanie Autres
Langues Contact

Bauru, São Paulo, Brésil

latitude: 22-19S, longitude: 049-04W, altitude: 590 m


METAR: SBBU 182000Z 24002KT 9999 FEW030 SCT070 30/21 Q1013
TAF: SBBU 181500Z 1818/1906 10008KT 9999 SCT030 TX29/1818Z TN22/1906Z PROB40 TEMPO 1818/1823 5000 TSRA SCT015 FEW035CB RMK PCF

Heure: 17:44 (20:44 UTC)

Observation

Le bulletin a été fait il y a 44 minutes, à 20:00 UTC
Vent 2 kt de ouest/sud-ouest
Température 30°C
Humidité 59%
Pression 1013 hPa
Visibilité 10 km ou plus
Quelques nuages à une hauteur de 3000 ft
Nuages épars à une hauteur de 7000 ft

Changer d'unités

Prévision

Le bulletin a été fait il y a 5 heures et 44 minutes, à 15:00 UTC
Prévision valable du 18 à 18 UTC au 19 à 06 UTC
Vent 8 kt de est
Visibilité 10 km ou plus
Nuages épars à une hauteur de 3000 ft
Probabilité 40% :
Temporairement
du 18 à 18 UTC au 18 à 23 UTC
Visibilité: 5000 m
Nuages épars à une hauteur de 1500 ft
Quelques nuages à une hauteur de 3500 ft, Cumulonimbus.
orage, pluie
Les informations qui figurent sur ce site font l'objet d'une clause de non-responsabilité
Météo : Europe Afrique Amérique du Nord Amérique du Sud Asie Australie-Océanie Autres
Images satellite Prévisions 10 joursClimatMétéo marine Cyclones Foudre AéroportsFAQ Langues Contact Actualités A propos